createdAt,value
2018-12-30T00:01:54.755Z,8.30
2018-12-30T00:04:26.927Z,8.30
2018-12-30T00:06:57.712Z,8.30
2018-12-30T00:09:27.124Z,8.30
2018-12-30T00:11:57.650Z,8.20
2018-12-30T00:14:28.086Z,8.20
2018-12-30T00:16:59.530Z,8.20
2018-12-30T00:19:42.248Z,8.20
2018-12-30T00:22:07.288Z,8.30
2018-12-30T00:24:47.075Z,8.30
2018-12-30T00:27:16.564Z,8.30
2018-12-30T00:29:48.062Z,8.20
2018-12-30T00:32:18.519Z,8.20
2018-12-30T00:34:54.173Z,8.10
2018-12-30T00:37:23.665Z,8.10
2018-12-30T00:39:53.195Z,8.10
2018-12-30T00:42:22.641Z,8.10
2018-12-30T00:44:52.154Z,8.10
2018-12-30T00:47:27.679Z,8.10
2018-12-30T00:49:57.290Z,8.10
2018-12-30T00:52:28.778Z,8.10
2018-12-30T00:55:04.158Z,8.10
2018-12-30T00:57:37.840Z,8.10
2018-12-30T01:00:09.439Z,8.10
2018-12-30T01:02:39.991Z,8.10
2018-12-30T01:05:11.035Z,8.10
2018-12-30T01:07:40.811Z,8.10
2018-12-30T01:10:10.531Z,8.10
2018-12-30T01:12:41.132Z,8.00
2018-12-30T01:15:10.597Z,8.10
2018-12-30T01:17:42.067Z,8.00
2018-12-30T01:20:12.024Z,8.00
2018-12-30T01:22:42.581Z,8.00
2018-12-30T01:25:13.079Z,8.00
2018-12-30T01:27:43.512Z,7.90
2018-12-30T01:30:13.050Z,7.90
2018-12-30T01:32:42.763Z,7.90
2018-12-30T01:35:13.199Z,7.90
2018-12-30T01:37:43.698Z,7.90
2018-12-30T01:40:13.225Z,7.80
2018-12-30T01:42:42.664Z,7.80
2018-12-30T01:45:16.697Z,7.80
2018-12-30T01:47:52.606Z,7.80
2018-12-30T01:50:31.188Z,7.80
2018-12-30T01:53:10.031Z,7.80
2018-12-30T01:55:41.510Z,7.80
2018-12-30T01:58:27.257Z,7.80
2018-12-30T02:00:56.669Z,7.80
2018-12-30T02:03:26.121Z,7.80
2018-12-30T02:05:55.611Z,7.80
2018-12-30T02:08:26.114Z,7.90
2018-12-30T02:10:55.566Z,7.80
2018-12-30T02:13:36.185Z,7.80
2018-12-30T02:16:05.715Z,7.80
2018-12-30T02:18:35.209Z,7.80
2018-12-30T02:21:05.653Z,7.80
2018-12-30T02:23:35.174Z,7.80
2018-12-30T02:26:04.662Z,7.80
2018-12-30T02:28:34.089Z,7.80
2018-12-30T02:31:05.047Z,7.80
2018-12-30T02:33:42.763Z,7.90
2018-12-30T02:36:12.260Z,8.00
2018-12-30T02:38:41.704Z,8.00
2018-12-30T02:41:11.184Z,8.00
2018-12-30T02:43:41.660Z,8.10
2018-12-30T02:46:12.376Z,8.10
2018-12-30T02:48:44.214Z,8.10
2018-12-30T02:51:13.638Z,8.00
2018-12-30T02:53:43.090Z,8.00
2018-12-30T02:56:12.635Z,8.00
2018-12-30T02:58:51.980Z,8.00
2018-12-30T03:01:22.481Z,7.90
2018-12-30T03:03:52.903Z,7.90
2018-12-30T03:06:25.782Z,8.00
2018-12-30T03:08:57.386Z,7.90
2018-12-30T03:11:26.826Z,8.00
2018-12-30T03:13:56.346Z,8.00
2018-12-30T03:16:25.765Z,8.00
2018-12-30T03:18:55.295Z,8.00
2018-12-30T03:21:24.756Z,8.00
2018-12-30T03:23:54.218Z,8.00
2018-12-30T03:26:23.701Z,8.00
2018-12-30T03:28:55.218Z,8.00
2018-12-30T03:31:24.699Z,8.00
2018-12-30T03:33:54.117Z,8.00
2018-12-30T03:36:23.489Z,8.00
2018-12-30T03:38:52.977Z,8.00
2018-12-30T03:41:22.487Z,7.90
2018-12-30T03:43:52.005Z,7.90
2018-12-30T03:46:30.401Z,7.90
2018-12-30T03:49:05.709Z,7.90
2018-12-30T03:51:37.375Z,7.90
2018-12-30T03:54:06.950Z,7.90
2018-12-30T03:56:37.358Z,7.90
2018-12-30T03:59:07.025Z,7.90
2018-12-30T04:01:37.452Z,7.90
2018-12-30T04:04:06.892Z,7.90
2018-12-30T04:06:36.365Z,7.90
2018-12-30T04:09:08.967Z,7.90
2018-12-30T04:11:38.381Z,7.90
2018-12-30T04:14:07.859Z,7.90
2018-12-30T04:16:37.333Z,7.90
2018-12-30T04:19:12.719Z,7.90
2018-12-30T04:21:55.293Z,7.90
2018-12-30T04:24:24.718Z,7.90
2018-12-30T04:26:56.175Z,7.90
2018-12-30T04:29:28.728Z,7.80
2018-12-30T04:31:59.226Z,7.80
2018-12-30T04:34:29.681Z,7.80
2018-12-30T04:37:17.320Z,7.80
2018-12-30T04:39:47.727Z,7.80
2018-12-30T04:42:18.169Z,7.80
2018-12-30T04:44:48.598Z,7.80
2018-12-30T04:47:18.042Z,7.80
2018-12-30T04:50:06.086Z,7.80
2018-12-30T04:52:35.598Z,7.80
2018-12-30T04:55:07.108Z,7.80
2018-12-30T04:57:40.789Z,7.80
2018-12-30T05:00:12.236Z,7.80
2018-12-30T05:02:41.682Z,7.80
2018-12-30T05:05:17.143Z,7.80
2018-12-30T05:07:58.938Z,7.80
2018-12-30T05:10:28.337Z,7.80
2018-12-30T05:12:59.983Z,7.80
2018-12-30T05:15:29.432Z,7.80
2018-12-30T05:17:58.966Z,7.80
2018-12-30T05:20:28.443Z,7.80
2018-12-30T05:23:04.184Z,7.80
2018-12-30T05:25:33.672Z,7.80
2018-12-30T05:28:05.399Z,7.70
2018-12-30T05:30:40.869Z,7.70
2018-12-30T05:33:11.256Z,7.70
2018-12-30T05:35:42.659Z,7.70
2018-12-30T05:38:12.126Z,7.80
2018-12-30T05:40:43.578Z,7.80
2018-12-30T05:43:12.966Z,7.80
2018-12-30T05:45:42.400Z,7.80
2018-12-30T05:48:11.927Z,7.80
2018-12-30T05:50:41.413Z,7.70
2018-12-30T05:53:12.906Z,7.70
2018-12-30T05:55:43.325Z,7.70
2018-12-30T05:58:14.304Z,7.70
2018-12-30T06:00:45.856Z,7.70
2018-12-30T06:03:15.290Z,7.70
2018-12-30T06:05:44.741Z,7.70
2018-12-30T06:08:14.200Z,7.70
2018-12-30T06:10:51.582Z,7.70
2018-12-30T06:13:22.068Z,7.70
2018-12-30T06:15:51.528Z,7.60
2018-12-30T06:18:22.024Z,7.70
2018-12-30T06:20:51.518Z,7.70
2018-12-30T06:23:21.023Z,7.70
2018-12-30T06:25:50.583Z,7.70
2018-12-30T06:28:25.789Z,7.60
2018-12-30T06:30:56.266Z,7.70
2018-12-30T06:33:26.776Z,7.70
2018-12-30T06:35:56.143Z,7.60
2018-12-30T06:38:25.697Z,7.60
2018-12-30T06:40:55.186Z,7.60
2018-12-30T06:43:24.637Z,7.60
2018-12-30T06:45:56.113Z,7.60
2018-12-30T06:48:26.522Z,7.60
2018-12-30T06:50:55.974Z,7.60
2018-12-30T06:53:25.627Z,7.60
2018-12-30T06:55:57.021Z,7.60
2018-12-30T06:58:26.438Z,7.60
2018-12-30T07:00:56.937Z,7.60
2018-12-30T07:03:32.249Z,7.60
2018-12-30T07:06:07.607Z,7.60
2018-12-30T07:08:37.149Z,7.60
2018-12-30T07:11:07.566Z,7.60
2018-12-30T07:13:42.100Z,7.60
2018-12-30T07:16:11.581Z,7.60
2018-12-30T07:18:40.967Z,7.60
2018-12-30T07:21:10.526Z,7.60
2018-12-30T07:23:41.893Z,7.60
2018-12-30T07:26:11.399Z,7.60
2018-12-30T07:28:42.928Z,7.60
2018-12-30T07:31:12.443Z,7.60
2018-12-30T07:33:41.928Z,7.60
2018-12-30T07:36:11.370Z,7.60
2018-12-30T07:38:40.873Z,7.60
2018-12-30T07:41:13.495Z,7.60
2018-12-30T07:43:43.961Z,7.60
2018-12-30T07:46:13.416Z,7.60
2018-12-30T07:48:42.908Z,7.60
2018-12-30T07:51:12.374Z,7.60
2018-12-30T07:53:47.071Z,7.60
2018-12-30T07:56:17.002Z,7.60
2018-12-30T07:58:46.484Z,7.60
2018-12-30T08:01:17.913Z,7.60
2018-12-30T08:03:47.432Z,7.60
2018-12-30T08:06:17.861Z,7.60
2018-12-30T08:08:53.210Z,7.60
2018-12-30T08:11:23.719Z,7.60
2018-12-30T08:13:59.331Z,7.50
2018-12-30T08:16:29.778Z,7.50
2018-12-30T08:18:59.295Z,7.50
2018-12-30T08:21:28.780Z,7.50
2018-12-30T08:23:58.517Z,7.50
2018-12-30T08:26:27.897Z,7.50
2018-12-30T08:28:57.365Z,7.50
2018-12-30T08:31:32.968Z,7.50
2018-12-30T08:34:02.440Z,7.50
2018-12-30T08:36:39.718Z,7.50
2018-12-30T08:39:09.688Z,7.50
2018-12-30T08:41:41.110Z,7.50
2018-12-30T08:44:15.877Z,7.60
2018-12-30T08:46:47.344Z,7.60
2018-12-30T08:49:23.070Z,7.60
2018-12-30T08:52:06.510Z,7.60
2018-12-30T08:54:37.121Z,7.60
2018-12-30T08:57:20.816Z,7.50
2018-12-30T08:59:50.295Z,7.50
2018-12-30T09:02:20.780Z,7.50
2018-12-30T09:04:53.402Z,7.50
2018-12-30T09:07:31.151Z,7.60
2018-12-30T09:10:00.671Z,7.70
2018-12-30T09:12:31.116Z,7.80
2018-12-30T09:15:00.615Z,7.90
2018-12-30T09:17:30.074Z,8.10
2018-12-30T09:19:59.492Z,8.10
2018-12-30T09:22:29.011Z,8.10
2018-12-30T09:24:58.587Z,8.00
2018-12-30T09:27:28.077Z,8.00
2018-12-30T09:30:01.583Z,8.00
2018-12-30T09:32:36.043Z,8.00
2018-12-30T09:35:05.700Z,7.90
2018-12-30T09:37:41.110Z,7.90
2018-12-30T09:40:11.718Z,7.90
2018-12-30T09:42:50.529Z,8.00
2018-12-30T09:45:22.041Z,8.00
2018-12-30T09:47:55.682Z,8.10
2018-12-30T09:50:25.166Z,8.10
2018-12-30T09:52:55.542Z,8.10
2018-12-30T09:55:29.073Z,8.10
2018-12-30T09:57:58.520Z,8.00
2018-12-30T10:00:28.028Z,8.00
2018-12-30T10:02:57.493Z,8.10
2018-12-30T10:05:26.852Z,8.10
2018-12-30T10:08:00.393Z,8.10
2018-12-30T10:10:30.863Z,8.10
2018-12-30T10:13:00.402Z,8.10
2018-12-30T10:15:30.907Z,8.20
2018-12-30T10:18:00.418Z,8.20
2018-12-30T10:20:36.874Z,8.20
2018-12-30T10:23:06.267Z,8.20
2018-12-30T10:25:38.811Z,8.20
2018-12-30T10:28:10.225Z,8.20
2018-12-30T10:30:40.717Z,8.20
2018-12-30T10:33:10.359Z,8.10
2018-12-30T10:35:39.933Z,8.10
2018-12-30T10:38:10.394Z,8.20
2018-12-30T10:41:05.560Z,8.20
2018-12-30T10:43:38.564Z,8.30
2018-12-30T10:46:09.487Z,8.20
2018-12-30T10:48:41.510Z,8.30
2018-12-30T10:51:11.152Z,8.20
2018-12-30T10:53:47.695Z,8.20
2018-12-30T10:56:18.219Z,8.20
2018-12-30T10:58:58.020Z,8.30
2018-12-30T11:01:30.596Z,8.30
2018-12-30T11:04:00.024Z,8.30
2018-12-30T11:06:29.562Z,8.40
2018-12-30T11:09:07.767Z,8.50
2018-12-30T11:11:40.404Z,8.50
2018-12-30T11:14:09.849Z,8.50
2018-12-30T11:16:43.320Z,8.40
2018-12-30T11:19:18.637Z,8.40
2018-12-30T11:21:50.124Z,8.40
2018-12-30T11:24:30.048Z,8.40
2018-12-30T11:26:59.528Z,8.40
2018-12-30T11:29:36.219Z,8.30
2018-12-30T11:32:06.819Z,8.20
2018-12-30T11:34:40.981Z,8.20
2018-12-30T11:37:10.520Z,8.10
2018-12-30T11:39:46.035Z,8.10
2018-12-30T11:42:15.439Z,8.10
2018-12-30T11:44:45.908Z,8.10
2018-12-30T11:47:18.440Z,8.10
2018-12-30T11:49:47.981Z,8.20
2018-12-30T11:52:17.473Z,8.20
2018-12-30T11:54:46.940Z,8.10
2018-12-30T11:57:16.461Z,8.10
2018-12-30T11:59:56.912Z,8.10
2018-12-30T12:02:27.309Z,8.10
2018-12-30T12:04:58.870Z,8.10
2018-12-30T12:07:31.505Z,8.10
2018-12-30T12:10:03.046Z,8.20
2018-12-30T12:12:32.504Z,8.20
2018-12-30T12:15:01.972Z,8.20
2018-12-30T12:17:33.457Z,8.20
2018-12-30T12:20:04.281Z,8.20
2018-12-30T12:22:36.959Z,8.20
2018-12-30T12:25:07.623Z,8.30
2018-12-30T12:27:37.197Z,8.20
2018-12-30T12:30:09.969Z,8.30
2018-12-30T12:32:39.515Z,8.30
2018-12-30T12:35:10.077Z,8.20
2018-12-30T12:37:39.571Z,8.10
2018-12-30T12:40:10.012Z,8.10
2018-12-30T12:42:39.526Z,8.10
2018-12-30T12:45:10.095Z,8.10
2018-12-30T12:47:41.521Z,8.10
2018-12-30T12:50:14.183Z,8.10
2018-12-30T12:52:43.627Z,8.10
2018-12-30T12:55:14.077Z,8.10
2018-12-30T12:57:46.645Z,8.10
2018-12-30T13:00:16.087Z,8.20
2018-12-30T13:02:52.942Z,8.20
2018-12-30T13:05:22.398Z,8.20
2018-12-30T13:07:51.941Z,8.20
2018-12-30T13:10:23.577Z,8.20
2018-12-30T13:12:54.019Z,8.20
2018-12-30T13:15:23.646Z,8.20
2018-12-30T13:17:56.192Z,8.20
2018-12-30T13:20:26.619Z,8.20
2018-12-30T13:22:59.183Z,8.30
2018-12-30T13:25:29.726Z,8.40
2018-12-30T13:27:59.224Z,8.40
2018-12-30T13:30:37.659Z,8.30
2018-12-30T13:33:07.313Z,8.30
2018-12-30T13:35:43.407Z,8.20
2018-12-30T13:38:09.004Z,8.20
2018-12-30T13:40:47.909Z,8.20
2018-12-30T13:43:18.491Z,8.30
2018-12-30T13:45:48.065Z,8.20
2018-12-30T13:48:17.597Z,8.20
2018-12-30T13:50:53.419Z,8.20
2018-12-30T13:53:24.659Z,8.20
2018-12-30T13:55:55.116Z,8.20
2018-12-30T13:58:24.654Z,8.10
2018-12-30T14:00:55.121Z,8.10
2018-12-30T14:03:25.663Z,8.10
2018-12-30T14:05:55.131Z,8.10
2018-12-30T14:08:26.645Z,8.20
2018-12-30T14:11:02.057Z,8.20
2018-12-30T14:13:31.659Z,8.20
2018-12-30T14:16:01.040Z,8.10
2018-12-30T14:18:32.584Z,8.10
2018-12-30T14:21:02.096Z,8.10
2018-12-30T14:23:31.616Z,8.10
2018-12-30T14:26:01.126Z,8.10
2018-12-30T14:28:31.571Z,8.00
2018-12-30T14:31:01.095Z,8.00
2018-12-30T14:33:30.652Z,7.90
2018-12-30T14:36:03.299Z,7.90
2018-12-30T14:38:47.191Z,7.90
2018-12-30T14:41:16.671Z,7.90
2018-12-30T14:43:47.102Z,7.80
2018-12-30T14:46:16.639Z,7.80
2018-12-30T14:48:48.180Z,7.70
2018-12-30T14:51:17.686Z,7.60
2018-12-30T14:53:47.491Z,7.60
2018-12-30T14:56:17.967Z,7.50
2018-12-30T14:58:49.619Z,7.50
2018-12-30T15:01:19.034Z,7.50
2018-12-30T15:03:55.753Z,7.50
2018-12-30T15:06:25.459Z,7.50
2018-12-30T15:09:00.701Z,7.40
2018-12-30T15:11:30.135Z,7.40
2018-12-30T15:14:00.548Z,7.40
2018-12-30T15:16:30.041Z,7.30
2018-12-30T15:19:02.576Z,7.30
2018-12-30T15:21:33.021Z,7.30
2018-12-30T15:24:02.505Z,7.30
2018-12-30T15:26:32.992Z,7.20
2018-12-30T15:29:03.521Z,7.30
2018-12-30T15:31:33.033Z,7.30
2018-12-30T15:34:03.456Z,7.20
2018-12-30T15:36:34.536Z,7.20
2018-12-30T15:39:11.834Z,7.20
2018-12-30T15:41:44.331Z,7.20
2018-12-30T15:44:14.748Z,7.20
2018-12-30T15:46:45.046Z,7.20
2018-12-30T15:49:14.546Z,7.20
2018-12-30T15:51:43.992Z,7.20
2018-12-30T15:54:13.478Z,7.20
2018-12-30T15:56:42.991Z,7.20
2018-12-30T15:59:13.556Z,7.20
2018-12-30T16:01:50.808Z,7.20
2018-12-30T16:04:22.217Z,7.20
2018-12-30T16:06:51.729Z,7.20
2018-12-30T16:09:21.196Z,7.20
2018-12-30T16:12:00.729Z,7.30
2018-12-30T16:14:30.135Z,7.30
2018-12-30T16:17:00.590Z,7.30
2018-12-30T16:19:30.013Z,7.30
2018-12-30T16:22:04.580Z,7.30
2018-12-30T16:24:34.110Z,7.30
2018-12-30T16:27:06.993Z,7.30
2018-12-30T16:29:36.475Z,7.30
2018-12-30T16:32:17.115Z,7.30
2018-12-30T16:34:47.719Z,7.30
2018-12-30T16:37:22.846Z,7.40
2018-12-30T16:39:52.296Z,7.40
2018-12-30T16:42:22.701Z,7.40
2018-12-30T16:44:53.154Z,7.40
2018-12-30T16:47:22.702Z,7.40
2018-12-30T16:49:52.236Z,7.40
2018-12-30T16:52:21.793Z,7.40
2018-12-30T16:54:54.468Z,7.40
2018-12-30T16:57:33.891Z,7.40
2018-12-30T17:00:03.429Z,7.40
2018-12-30T17:02:34.968Z,7.40
2018-12-30T17:05:06.442Z,7.50
2018-12-30T17:07:37.075Z,7.40
2018-12-30T17:10:08.018Z,7.40
2018-12-30T17:12:37.506Z,7.40
2018-12-30T17:15:07.950Z,7.40
2018-12-30T17:17:46.466Z,7.40
2018-12-30T17:20:15.940Z,7.30
2018-12-30T17:22:45.396Z,7.30
2018-12-30T17:25:14.821Z,7.30
2018-12-30T17:27:44.247Z,7.30
2018-12-30T17:30:13.781Z,7.20
2018-12-30T17:32:45.302Z,7.30
2018-12-30T17:35:15.803Z,7.20
2018-12-30T17:37:45.386Z,7.20
2018-12-30T17:40:16.251Z,7.20
2018-12-30T17:42:46.678Z,7.20
2018-12-30T17:45:21.382Z,7.20
2018-12-30T17:47:50.853Z,7.20
2018-12-30T17:50:27.304Z,7.10
2018-12-30T17:52:56.841Z,7.10
2018-12-30T17:55:26.421Z,7.10
2018-12-30T17:58:00.019Z,7.10
2018-12-30T18:00:29.532Z,7.10
2018-12-30T18:02:59.084Z,7.10
2018-12-30T18:05:28.516Z,7.10
2018-12-30T18:07:59.032Z,7.20
2018-12-30T18:10:28.483Z,7.20
2018-12-30T18:12:58.932Z,7.20
2018-12-30T18:15:30.441Z,7.20
2018-12-30T18:18:01.971Z,7.10
2018-12-30T18:20:34.629Z,7.20
2018-12-30T18:23:04.087Z,7.20
2018-12-30T18:25:35.701Z,7.20
2018-12-30T18:28:06.048Z,7.20
2018-12-30T18:30:35.500Z,7.30
2018-12-30T18:33:06.051Z,7.30
2018-12-30T18:35:35.599Z,7.30
2018-12-30T18:38:05.080Z,7.30
2018-12-30T18:40:34.550Z,7.30
2018-12-30T18:43:19.161Z,7.30
2018-12-30T18:45:53.749Z,7.30
2018-12-30T18:48:29.049Z,7.40
2018-12-30T18:51:00.484Z,7.40
2018-12-30T18:53:45.455Z,7.40
2018-12-30T18:56:17.095Z,7.40
2018-12-30T18:58:47.596Z,7.40
2018-12-30T19:01:21.130Z,7.30
2018-12-30T19:03:50.624Z,7.40
2018-12-30T19:06:28.873Z,7.40
2018-12-30T19:09:07.582Z,7.40
2018-12-30T19:11:47.057Z,7.40
2018-12-30T19:14:16.540Z,7.40
2018-12-30T19:16:46.007Z,7.40
2018-12-30T19:19:15.439Z,7.40
2018-12-30T19:21:44.955Z,7.40
2018-12-30T19:24:16.611Z,7.40
2018-12-30T19:26:47.149Z,7.40
2018-12-30T19:29:16.672Z,7.50
2018-12-30T19:31:47.156Z,7.50
2018-12-30T19:34:22.452Z,7.50
2018-12-30T19:36:55.572Z,7.50
2018-12-30T19:39:27.129Z,7.50
2018-12-30T19:41:56.616Z,7.50
2018-12-30T19:44:26.141Z,7.50
2018-12-30T19:46:57.585Z,7.60
2018-12-30T19:49:28.015Z,7.60
2018-12-30T19:51:59.517Z,7.60
2018-12-30T19:54:29.022Z,7.60
2018-12-30T19:56:58.570Z,7.60
2018-12-30T19:59:35.836Z,7.60
2018-12-30T20:02:09.352Z,7.60
2018-12-30T20:04:46.773Z,7.70
2018-12-30T20:07:22.145Z,7.70
2018-12-30T20:09:51.604Z,7.70
2018-12-30T20:12:23.086Z,7.70
2018-12-30T20:14:52.665Z,7.70
2018-12-30T20:17:23.121Z,7.70
2018-12-30T20:19:52.572Z,7.70
2018-12-30T20:22:27.101Z,7.70
2018-12-30T20:24:57.554Z,7.70
2018-12-30T20:27:27.985Z,7.70
2018-12-30T20:30:03.254Z,7.70
2018-12-30T20:32:40.698Z,7.60
2018-12-30T20:35:12.732Z,7.60
2018-12-30T20:37:42.303Z,7.70
2018-12-30T20:40:11.768Z,7.60
2018-12-30T20:42:41.298Z,7.60
2018-12-30T20:45:10.820Z,7.60
2018-12-30T20:47:40.326Z,7.60
2018-12-30T20:50:09.898Z,7.60
2018-12-30T20:52:41.416Z,7.60
2018-12-30T20:55:10.901Z,7.60
2018-12-30T20:57:46.451Z,7.60
2018-12-30T21:00:16.117Z,7.70
2018-12-30T21:02:47.559Z,7.70
2018-12-30T21:05:18.079Z,7.70
2018-12-30T21:07:47.478Z,7.70
2018-12-30T21:10:18.996Z,7.70
2018-12-30T21:12:49.620Z,7.70
2018-12-30T21:15:20.108Z,7.70
2018-12-30T21:17:57.372Z,7.70
2018-12-30T21:20:26.800Z,7.70
2018-12-30T21:22:56.232Z,7.70
2018-12-30T21:25:27.750Z,7.70
2018-12-30T21:28:00.477Z,7.70
2018-12-30T21:30:31.039Z,7.70
2018-12-30T21:33:02.521Z,7.70
2018-12-30T21:35:33.025Z,7.70
2018-12-30T21:40:45.399Z,7.70
2018-12-30T21:43:25.940Z,7.80
2018-12-30T21:45:55.455Z,7.80
2018-12-30T21:48:25.161Z,7.80
2018-12-30T21:50:54.677Z,7.70
2018-12-30T21:53:24.206Z,7.70
2018-12-30T21:55:55.838Z,7.70
2018-12-30T21:58:33.311Z,7.80
2018-12-30T22:01:02.871Z,7.80
2018-12-30T22:03:34.380Z,7.80
2018-12-30T22:06:04.934Z,7.80
2018-12-30T22:08:34.493Z,7.80
2018-12-30T22:11:04.951Z,7.80
2018-12-30T22:13:46.657Z,7.80
2018-12-30T22:16:22.923Z,7.80
2018-12-30T22:18:58.230Z,7.90
2018-12-30T22:21:28.736Z,7.80
2018-12-30T22:23:59.199Z,7.80
2018-12-30T22:26:28.692Z,7.80
2018-12-30T22:28:58.327Z,7.90
2018-12-30T22:31:32.040Z,7.80
2018-12-30T22:34:02.486Z,7.90
2018-12-30T22:36:32.526Z,7.90
2018-12-30T22:39:01.941Z,7.90
2018-12-30T22:41:31.299Z,7.90
2018-12-30T22:44:06.698Z,7.90
2018-12-30T22:46:36.222Z,8.00
2018-12-30T22:49:06.875Z,7.90
2018-12-30T22:51:36.810Z,7.90
2018-12-30T22:54:10.574Z,7.90
2018-12-30T22:56:55.384Z,8.00
2018-12-30T22:59:26.844Z,8.00
2018-12-30T23:02:02.285Z,8.00
2018-12-30T23:04:33.733Z,8.00
2018-12-30T23:07:04.216Z,8.00
2018-12-30T23:09:37.944Z,8.00
2018-12-30T23:12:09.404Z,8.00
2018-12-30T23:14:40.278Z,8.00
2018-12-30T23:17:09.765Z,8.00
2018-12-30T23:19:39.410Z,8.00
2018-12-30T23:22:10.999Z,8.00
2018-12-30T23:24:40.542Z,8.00
2018-12-30T23:27:10.054Z,8.00
2018-12-30T23:29:39.709Z,8.00
2018-12-30T23:32:09.224Z,8.00
2018-12-30T23:34:38.833Z,8.00
2018-12-30T23:37:08.394Z,8.10
2018-12-30T23:39:37.962Z,8.10
2018-12-30T23:42:07.462Z,8.10
2018-12-30T23:44:41.199Z,8.10
2018-12-30T23:47:12.640Z,8.10
2018-12-30T23:49:42.135Z,8.10
2018-12-30T23:52:11.570Z,8.10
2018-12-30T23:54:42.057Z,8.20
2018-12-30T23:57:14.673Z,8.20
2018-12-30T23:59:44.164Z,8.20
